This is the latest recevied weather packets stored in our database for station/object KD2DXJ. If no packets are shown the sender has not sent any weather packets the latest 1 day(s).
| Time | Temp. | Humidity | Pressure | Rain* | Wind** | Luminosity | Snow |
|---|---|---|---|---|---|---|---|
| 1778066089 | 5.56° C | 99% | 1008.9 hPa | 1.27 mm | - | 18 W/m² | - |
| 1778064876 | 5.56° C | 99% | 1009.4 hPa | 1.27 mm | - | 10 W/m² | - |
| 1778062152 | 6.11° C | 99% | 1009.1 hPa | 1.78 mm | - | 2 W/m² | - |
| 1778061850 | 6.11° C | 99% | 1008.7 hPa | 3.05 mm | - | 2 W/m² | - |
| 1778061548 | 6.11° C | 99% | 1008.9 hPa | 2.29 mm | - | 1 W/m² | - |
| 1778060641 | 6.11° C | 99% | 1008.3 hPa | 3.05 mm | - | 0 W/m² | - |
| 1778060338 | 6.11° C | 99% | 1008.4 hPa | 3.05 mm | - | 0 W/m² | - |
| 1778060036 | 6.11° C | 99% | 1008.5 hPa | 1.78 mm | - | 0 W/m² | - |
| 1778058220 | 6.11° C | 99% | 1009.3 hPa | 0 mm | - | 0 W/m² | - |
| 1778057006 | 6.11° C | 99% | 1009.1 hPa | 0 mm | - | 0 W/m² | - |
| 1778056703 | 6.11° C | 99% | 1009.1 hPa | 0 mm | - | 0 W/m² | - |
| 1778056098 | 6.11° C | 99% | 1009.1 hPa | 0 mm | - | 0 W/m² | - |
| 1778055794 | 6.11° C | 99% | 1009 hPa | 0 mm | - | 0 W/m² | - |
| 1778054582 | 6.11° C | 99% | 1008.8 hPa | 0 mm | - | 0 W/m² | - |
| 1778054280 | 6.11° C | 99% | 1008.6 hPa | 0 mm | - | 0 W/m² | - |
| 1778053674 | 6.11° C | 99% | 1009 hPa | 0 mm | - | 0 W/m² | - |
| 1778053069 | 6.11° C | 99% | 1009 hPa | 0 mm | - | 0 W/m² | - |
| 1778052766 | 6.11° C | 99% | 1009 hPa | 0 mm | - | 0 W/m² | - |
| 1778052463 | 6.11° C | 99% | 1009 hPa | 0 mm | - | 0 W/m² | - |
| 1778052161 | 6.11° C | 99% | 1008.9 hPa | 0 mm | - | 0 W/m² | - |
| 1778051556 | 6.11° C | 99% | 1008.7 hPa | 1.78 mm | - | 0 W/m² | - |
| 1778050041 | 6.67° C | 99% | 1009.1 hPa | 0 mm | - | 0 W/m² | - |
| 1778048830 | 6.67° C | 99% | 1008.8 hPa | 1.27 mm | - | 0 W/m² | - |
| 1778047619 | 6.67° C | 99% | 1009.8 hPa | 0 mm | - | 0 W/m² | - |
| 1778047315 | 6.67° C | 99% | 1009.4 hPa | 0 mm | - | 0 W/m² | - |
* Rain latest hour (hover to see other rain measurements)
** Current wind speed in m/s (hover to see current wind gust speed)